createdAt,value
2022-09-03T00:00:47.990Z,0.70
2022-09-03T00:03:19.493Z,1.20
2022-09-03T00:05:52.316Z,0.93
2022-09-03T00:08:28.497Z,1.10
2022-09-03T00:11:06.993Z,1.38
2022-09-03T00:13:37.204Z,1.02
2022-09-03T00:16:10.283Z,1.00
2022-09-03T00:18:42.356Z,1.15
2022-09-03T00:21:12.160Z,0.90
2022-09-03T00:23:41.256Z,1.20
2022-09-03T00:26:11.431Z,1.05
2022-09-03T00:28:54.056Z,1.25
2022-09-03T00:31:30.205Z,1.05
2022-09-03T00:34:21.307Z,1.00
2022-09-03T00:36:48.538Z,1.10
2022-09-03T00:39:17.388Z,1.10
2022-09-03T00:41:44.639Z,0.90
2022-09-03T00:44:30.683Z,1.35
2022-09-03T00:47:25.026Z,0.82
2022-09-03T00:49:52.523Z,1.00
2022-09-03T00:52:23.453Z,1.10
2022-09-03T00:55:09.465Z,1.10
2022-09-03T01:00:13.027Z,1.52
2022-09-03T01:02:58.188Z,1.00
2022-09-03T01:05:25.997Z,1.13
2022-09-03T01:07:53.161Z,1.20
2022-09-03T01:10:39.631Z,1.15
2022-09-03T01:13:16.719Z,1.00
2022-09-03T01:15:56.724Z,1.38
2022-09-03T01:18:33.959Z,1.42
2022-09-03T01:21:04.461Z,1.27
2022-09-03T01:23:34.758Z,1.10
2022-09-03T01:26:01.933Z,1.17
2022-09-03T01:28:47.734Z,1.27
2022-09-03T01:31:21.214Z,1.23
2022-09-03T01:33:53.433Z,1.10
2022-09-03T01:36:30.374Z,1.00
2022-09-03T01:39:00.641Z,1.20
2022-09-03T01:42:05.472Z,1.00
2022-09-03T01:44:40.836Z,0.85
2022-09-03T01:47:26.940Z,1.52
2022-09-03T01:50:13.060Z,1.30
2022-09-03T01:52:46.576Z,1.30
2022-09-03T01:55:24.896Z,1.10
2022-09-03T01:57:56.296Z,1.67
2022-09-03T02:00:24.065Z,1.15
2022-09-03T02:02:52.059Z,1.35
2022-09-03T02:05:24.873Z,1.38
2022-09-03T02:07:56.875Z,1.55
2022-09-03T02:10:31.566Z,1.30
2022-09-03T02:13:25.821Z,1.30
2022-09-03T02:15:53.856Z,1.35
2022-09-03T02:18:22.746Z,1.80
2022-09-03T02:20:50.693Z,1.75
2022-09-03T02:23:17.961Z,1.55
2022-09-03T02:26:02.005Z,1.48
2022-09-03T02:28:29.990Z,1.63
2022-09-03T02:30:57.386Z,1.88
2022-09-03T02:33:24.920Z,1.50
2022-09-03T02:35:52.456Z,1.60
2022-09-03T02:38:21.403Z,1.60
2022-09-03T02:40:48.597Z,1.60
2022-09-03T02:43:19.563Z,1.85
2022-09-03T02:45:48.640Z,1.70
2022-09-03T02:48:18.517Z,1.50
2022-09-03T02:50:45.668Z,1.60
2022-09-03T02:53:12.859Z,1.90
2022-09-03T02:55:40.025Z,2.08
2022-09-03T02:58:08.578Z,1.60
2022-09-03T03:00:36.229Z,1.50
2022-09-03T03:03:04.042Z,1.70
2022-09-03T03:05:37.283Z,1.50
2022-09-03T03:08:04.563Z,2.05
2022-09-03T03:10:31.823Z,1.80
2022-09-03T03:12:59.026Z,1.42
2022-09-03T03:15:26.262Z,1.73
2022-09-03T03:17:53.405Z,1.95
2022-09-03T03:20:20.573Z,1.50
2022-09-03T03:22:47.995Z,1.67
2022-09-03T03:25:15.398Z,1.90
2022-09-03T03:27:43.353Z,1.80
2022-09-03T03:30:11.132Z,1.88
2022-09-03T03:32:38.602Z,1.92
2022-09-03T03:35:06.696Z,1.83
2022-09-03T03:37:35.729Z,1.70
2022-09-03T03:40:03.472Z,1.60
2022-09-03T03:42:33.548Z,2.00
2022-09-03T03:45:02.475Z,2.03
2022-09-03T03:47:33.527Z,1.70
2022-09-03T03:50:00.963Z,2.00
2022-09-03T03:52:28.639Z,1.60
2022-09-03T03:54:56.609Z,2.22
2022-09-03T03:57:23.983Z,1.52
2022-09-03T03:59:51.388Z,1.63
2022-09-03T04:02:19.024Z,1.85
2022-09-03T04:04:46.293Z,2.13
2022-09-03T04:07:13.457Z,2.05
2022-09-03T04:09:40.653Z,1.85
2022-09-03T04:12:10.673Z,1.73
2022-09-03T04:14:38.460Z,1.65
2022-09-03T04:17:05.647Z,2.00
2022-09-03T04:19:32.972Z,1.80
2022-09-03T04:22:00.307Z,2.03
2022-09-03T04:24:27.583Z,1.95
2022-09-03T04:26:54.880Z,1.70
2022-09-03T04:29:22.091Z,1.98
2022-09-03T04:32:08.013Z,1.77
2022-09-03T04:37:02.256Z,2.10
2022-09-03T04:39:29.437Z,1.90
2022-09-03T04:41:57.654Z,1.98
2022-09-03T04:44:26.870Z,2.03
2022-09-03T04:46:54.081Z,2.13
2022-09-03T04:49:21.280Z,2.08
2022-09-03T04:51:48.507Z,2.17
2022-09-03T04:54:15.817Z,2.10
2022-09-03T04:56:43.037Z,1.80
2022-09-03T04:59:10.385Z,2.03
2022-09-03T05:01:38.779Z,2.10
2022-09-03T05:04:06.625Z,2.10
2022-09-03T05:06:34.970Z,1.85
2022-09-03T05:09:02.425Z,2.10
2022-09-03T05:11:29.802Z,1.90
2022-09-03T05:13:58.318Z,2.00
2022-09-03T05:16:26.295Z,2.10
2022-09-03T05:18:54.273Z,1.95
2022-09-03T05:21:22.313Z,1.98
2022-09-03T05:23:50.871Z,1.70
2022-09-03T05:26:19.103Z,2.00
2022-09-03T05:28:46.733Z,2.10
2022-09-03T05:31:18.213Z,3.20
2022-09-03T05:33:46.438Z,2.33
2022-09-03T05:36:15.001Z,1.95
2022-09-03T05:38:42.549Z,2.05
2022-09-03T05:41:10.657Z,2.15
2022-09-03T05:43:38.116Z,2.05
2022-09-03T05:46:06.483Z,2.28
2022-09-03T05:48:35.128Z,1.95
2022-09-03T05:51:06.729Z,2.08
2022-09-03T05:53:35.240Z,2.00
2022-09-03T05:56:04.187Z,2.08
2022-09-03T05:58:31.938Z,1.90
2022-09-03T06:00:59.363Z,2.05
2022-09-03T06:03:27.107Z,1.88
2022-09-03T06:05:55.230Z,1.80
2022-09-03T06:08:23.160Z,1.83
2022-09-03T06:10:50.329Z,1.92
2022-09-03T06:13:17.540Z,1.92
2022-09-03T06:15:44.843Z,1.60
2022-09-03T06:18:12.020Z,1.92
2022-09-03T06:20:39.207Z,1.75
2022-09-03T06:23:06.390Z,1.60
2022-09-03T06:25:33.628Z,1.85
2022-09-03T06:28:02.235Z,1.75
2022-09-03T06:30:29.451Z,1.85
2022-09-03T06:32:56.602Z,2.50
2022-09-03T06:35:23.781Z,1.70
2022-09-03T06:37:52.163Z,1.80
2022-09-03T06:40:22.646Z,1.60
2022-09-03T06:43:03.269Z,1.95
2022-09-03T06:45:31.294Z,1.52
2022-09-03T06:47:58.508Z,1.50
2022-09-03T06:50:25.775Z,1.77
2022-09-03T06:52:55.114Z,1.40
2022-09-03T06:55:22.957Z,1.70
2022-09-03T06:57:53.133Z,1.88
2022-09-03T07:00:21.813Z,1.40
2022-09-03T07:02:49.023Z,1.70
2022-09-03T07:05:16.233Z,1.70
2022-09-03T07:07:44.589Z,1.35
2022-09-03T07:10:13.893Z,1.70
2022-09-03T07:12:41.096Z,1.77
2022-09-03T07:15:08.540Z,1.55
2022-09-03T07:17:35.778Z,1.50
2022-09-03T07:20:03.021Z,1.10
2022-09-03T07:22:31.321Z,1.50
2022-09-03T07:24:59.198Z,1.40
2022-09-03T07:27:26.513Z,1.17
2022-09-03T07:29:53.692Z,1.50
2022-09-03T07:32:20.865Z,1.40
2022-09-03T07:34:48.113Z,1.67
2022-09-03T07:37:15.845Z,1.58
2022-09-03T07:39:43.716Z,1.48
2022-09-03T07:42:11.091Z,4.03
2022-09-03T07:44:38.313Z,2.97
2022-09-03T07:47:06.457Z,1.80
2022-09-03T07:49:33.759Z,1.50
2022-09-03T07:52:02.159Z,1.58
2022-09-03T07:54:29.318Z,1.35
2022-09-03T07:56:56.887Z,1.38
2022-09-03T07:59:24.770Z,1.83
2022-09-03T08:01:52.170Z,1.25
2022-09-03T08:04:20.640Z,1.27
2022-09-03T08:06:48.341Z,1.70
2022-09-03T08:09:15.589Z,1.20
2022-09-03T08:11:43.660Z,1.50
2022-09-03T08:14:12.906Z,1.27
2022-09-03T08:16:44.662Z,1.50
2022-09-03T08:19:13.370Z,1.42
2022-09-03T08:21:42.203Z,1.75
2022-09-03T08:24:11.024Z,1.38
2022-09-03T08:26:39.770Z,1.20
2022-09-03T08:29:07.435Z,1.55
2022-09-03T08:31:36.538Z,1.80
2022-09-03T08:34:06.956Z,1.20
2022-09-03T08:36:36.255Z,1.13
2022-09-03T08:39:04.574Z,1.10
2022-09-03T08:41:40.895Z,1.40
2022-09-03T08:44:11.200Z,1.17
2022-09-03T08:46:38.379Z,1.40
2022-09-03T08:49:06.340Z,1.30
2022-09-03T08:51:38.584Z,1.20
2022-09-03T08:54:06.412Z,1.05
2022-09-03T08:56:36.779Z,1.48
2022-09-03T08:59:05.350Z,0.98
2022-09-03T09:02:07.112Z,1.58
2022-09-03T09:04:48.083Z,1.33
2022-09-03T09:07:23.189Z,1.15
2022-09-03T09:10:09.404Z,1.10
2022-09-03T09:12:46.527Z,1.40
2022-09-03T09:15:50.011Z,0.98
2022-09-03T09:18:26.264Z,1.10
2022-09-03T09:20:59.225Z,1.10
2022-09-03T09:23:26.396Z,1.20
2022-09-03T09:25:55.375Z,1.42
2022-09-03T09:28:24.189Z,1.00
2022-09-03T09:30:53.198Z,0.85
2022-09-03T09:33:21.021Z,1.42
2022-09-03T09:35:48.789Z,0.80
2022-09-03T09:38:23.230Z,1.63
2022-09-03T09:40:50.596Z,0.98
2022-09-03T09:43:21.302Z,0.85
2022-09-03T09:45:49.708Z,0.85
2022-09-03T09:48:19.971Z,1.15
2022-09-03T09:50:47.307Z,1.40
2022-09-03T09:53:15.156Z,0.85
2022-09-03T09:55:58.381Z,1.13
2022-09-03T09:58:30.872Z,0.85
2022-09-03T10:00:59.889Z,1.58
2022-09-03T10:03:29.919Z,0.77
2022-09-03T10:06:25.490Z,0.90
2022-09-03T10:08:54.379Z,0.90
2022-09-03T10:11:25.680Z,0.90
2022-09-03T10:13:53.697Z,1.00
2022-09-03T10:16:23.293Z,1.17
2022-09-03T10:19:02.937Z,1.00
2022-09-03T10:21:34.417Z,1.00
2022-09-03T10:24:19.978Z,1.20
2022-09-03T10:29:19.222Z,1.27
2022-09-03T10:32:02.223Z,1.20
2022-09-03T10:34:37.639Z,0.80
2022-09-03T10:37:07.880Z,0.90
2022-09-03T10:39:52.056Z,0.70
2022-09-03T10:42:21.979Z,0.68
2022-09-03T10:45:08.757Z,1.13
2022-09-03T10:47:42.345Z,1.10
2022-09-03T10:50:18.089Z,1.00
2022-09-03T10:52:47.899Z,1.20
2022-09-03T10:55:26.953Z,0.90
2022-09-03T10:58:04.124Z,1.75
2022-09-03T11:00:34.168Z,0.93
2022-09-03T11:03:21.017Z,1.00
2022-09-03T11:05:57.698Z,1.20
2022-09-03T11:08:29.027Z,1.00
2022-09-03T11:10:58.260Z,0.95
2022-09-03T11:13:28.505Z,1.10
2022-09-03T11:16:05.227Z,0.80
2022-09-03T11:18:34.936Z,1.08
2022-09-03T11:21:07.710Z,1.35
2022-09-03T11:23:38.078Z,1.00
2022-09-03T11:26:12.658Z,0.80
2022-09-03T11:28:49.161Z,0.95
2022-09-03T11:31:35.009Z,0.88
2022-09-03T11:34:23.279Z,1.25
2022-09-03T11:37:26.707Z,1.00
2022-09-03T11:39:56.612Z,1.10
2022-09-03T11:42:27.061Z,0.98
2022-09-03T11:44:54.276Z,1.00
2022-09-03T11:47:25.098Z,0.90
2022-09-03T11:50:05.958Z,0.90
2022-09-03T11:52:33.655Z,0.98
2022-09-03T11:55:00.817Z,0.80
2022-09-03T11:57:29.860Z,0.77
2022-09-03T12:00:10.568Z,0.95
2022-09-03T12:02:41.132Z,0.80
2022-09-03T12:05:12.304Z,0.70
2022-09-03T12:08:08.959Z,1.02
2022-09-03T12:11:00.469Z,0.80
2022-09-03T12:13:46.287Z,1.10
2022-09-03T12:16:32.025Z,0.93
2022-09-03T12:19:06.080Z,0.70
2022-09-03T12:21:41.203Z,0.88
2022-09-03T12:24:12.407Z,0.73
2022-09-03T12:26:41.861Z,1.02
2022-09-03T12:29:20.645Z,0.75
2022-09-03T12:31:50.460Z,1.20
2022-09-03T12:34:18.624Z,1.15
2022-09-03T12:36:46.933Z,1.10
2022-09-03T12:39:18.913Z,0.90
2022-09-03T12:42:01.544Z,0.93
2022-09-03T12:44:30.069Z,0.90
2022-09-03T12:49:53.500Z,0.93
2022-09-03T12:52:26.250Z,1.20
2022-09-03T12:54:53.537Z,1.13
2022-09-03T12:57:23.175Z,1.00
2022-09-03T12:59:52.400Z,1.10
2022-09-03T13:02:24.165Z,1.00
2022-09-03T13:04:52.781Z,1.00
2022-09-03T13:07:33.581Z,1.38
2022-09-03T13:10:08.384Z,1.00
2022-09-03T13:12:43.922Z,1.20
2022-09-03T13:15:19.779Z,0.98
2022-09-03T13:17:56.217Z,1.10
2022-09-03T13:20:23.381Z,0.80
2022-09-03T13:22:57.916Z,0.90
2022-09-03T13:25:37.699Z,0.80
2022-09-03T13:28:11.284Z,1.13
2022-09-03T13:30:51.921Z,1.02
2022-09-03T13:33:39.759Z,1.50
2022-09-03T13:36:25.190Z,1.63
2022-09-03T13:38:59.136Z,1.30
2022-09-03T13:41:45.003Z,0.90
2022-09-03T13:44:15.946Z,0.80
2022-09-03T13:46:46.161Z,0.98
2022-09-03T13:49:32.020Z,1.00
2022-09-03T13:52:04.530Z,1.15
2022-09-03T13:54:50.503Z,0.80
2022-09-03T13:57:23.636Z,1.00
2022-09-03T13:59:58.269Z,1.33
2022-09-03T14:02:34.382Z,1.00
2022-09-03T14:05:01.596Z,1.15
2022-09-03T14:07:35.836Z,0.98
2022-09-03T14:10:06.219Z,0.85
2022-09-03T14:12:42.573Z,0.95
2022-09-03T14:15:17.336Z,0.90
2022-09-03T14:17:47.400Z,1.42
2022-09-03T14:20:26.876Z,1.40
2022-09-03T14:23:06.261Z,1.15
2022-09-03T14:25:33.659Z,1.65
2022-09-03T14:28:14.469Z,1.40
2022-09-03T14:30:48.649Z,1.10
2022-09-03T14:33:31.516Z,1.00
2022-09-03T14:36:28.021Z,1.10
2022-09-03T14:39:07.428Z,1.02
2022-09-03T14:41:37.335Z,1.17
2022-09-03T14:44:23.141Z,1.00
2022-09-03T14:47:13.321Z,0.93
2022-09-03T14:50:00.750Z,0.88
2022-09-03T14:52:27.881Z,1.00
2022-09-03T14:54:58.092Z,0.90
2022-09-03T14:57:28.863Z,1.20
2022-09-03T14:59:58.805Z,1.30
2022-09-03T15:02:31.989Z,1.30
2022-09-03T15:05:02.157Z,1.00
2022-09-03T15:07:41.381Z,1.00
2022-09-03T15:10:28.090Z,1.08
2022-09-03T15:13:00.097Z,1.00
2022-09-03T15:15:30.079Z,1.20
2022-09-03T15:18:16.450Z,1.33
2022-09-03T15:20:51.923Z,1.30
2022-09-03T15:23:19.100Z,1.40
2022-09-03T15:25:46.285Z,1.00
2022-09-03T15:28:19.732Z,1.30
2022-09-03T15:30:53.486Z,1.50
2022-09-03T15:33:25.126Z,1.33
2022-09-03T15:36:07.701Z,1.38
2022-09-03T15:38:34.909Z,1.27
2022-09-03T15:41:03.845Z,1.33
2022-09-03T15:43:32.509Z,1.30
2022-09-03T15:46:10.654Z,1.67
2022-09-03T15:48:40.192Z,1.23
2022-09-03T15:51:12.020Z,1.40
2022-09-03T15:53:47.400Z,1.80
2022-09-03T15:56:38.606Z,1.60
2022-09-03T15:59:16.248Z,1.40
2022-09-03T16:01:55.814Z,1.80
2022-09-03T16:04:25.751Z,1.30
2022-09-03T16:07:10.460Z,1.45
2022-09-03T16:09:41.370Z,1.60
2022-09-03T16:12:29.972Z,1.40
2022-09-03T16:14:57.134Z,1.20
2022-09-03T16:17:27.921Z,1.30
2022-09-03T16:19:58.617Z,1.17
2022-09-03T16:22:30.901Z,1.20
2022-09-03T16:25:02.680Z,1.45
2022-09-03T16:27:39.170Z,1.30
2022-09-03T16:30:06.313Z,1.58
2022-09-03T16:32:39.691Z,1.40
2022-09-03T16:35:06.856Z,1.23
2022-09-03T16:37:46.312Z,1.40
2022-09-03T16:40:16.289Z,1.20
2022-09-03T16:43:01.600Z,0.95
2022-09-03T16:45:39.255Z,1.10
2022-09-03T16:48:18.938Z,1.25
2022-09-03T16:50:53.136Z,1.20
2022-09-03T16:53:29.057Z,1.10
2022-09-03T16:56:23.946Z,1.35
2022-09-03T16:59:01.466Z,0.90
2022-09-03T17:01:34.731Z,1.27
2022-09-03T17:04:01.963Z,1.35
2022-09-03T17:06:29.105Z,1.30
2022-09-03T17:09:04.312Z,1.10
2022-09-03T17:11:50.320Z,1.13
2022-09-03T17:14:44.737Z,1.27
2022-09-03T17:17:17.890Z,1.23
2022-09-03T17:19:45.064Z,1.45
2022-09-03T17:22:15.511Z,1.60
2022-09-03T17:24:45.099Z,1.70
2022-09-03T17:27:21.944Z,1.27
2022-09-03T17:30:04.514Z,1.50
2022-09-03T17:33:00.257Z,1.30
2022-09-03T17:35:37.766Z,1.60
2022-09-03T17:38:24.164Z,1.58
2022-09-03T17:41:00.221Z,2.05
2022-09-03T17:43:45.413Z,1.35
2022-09-03T17:46:31.244Z,1.40
2022-09-03T17:51:47.474Z,1.00
2022-09-03T17:54:17.705Z,1.15
2022-09-03T17:56:51.833Z,1.40
2022-09-03T17:59:19.017Z,1.42
2022-09-03T18:01:49.592Z,1.40
2022-09-03T18:04:39.948Z,1.33
2022-09-03T18:07:10.312Z,1.52
2022-09-03T18:09:55.942Z,1.35
2022-09-03T18:12:26.137Z,1.45
2022-09-03T18:14:56.793Z,1.40
2022-09-03T18:17:26.783Z,1.40
2022-09-03T18:20:15.381Z,1.73
2022-09-03T18:23:09.207Z,1.40
2022-09-03T18:25:56.708Z,1.52
2022-09-03T18:28:51.261Z,1.40
2022-09-03T18:31:37.114Z,1.70
2022-09-03T18:37:09.145Z,1.40
2022-09-03T18:39:55.260Z,2.45
2022-09-03T18:42:53.428Z,1.27
2022-09-03T18:46:38.537Z,1.27
2022-09-03T18:49:00.650Z,1.50
2022-09-03T18:51:50.618Z,1.48
2022-09-03T18:55:10.326Z,1.17
2022-09-03T18:58:14.932Z,1.23
2022-09-03T19:01:03.762Z,1.30
2022-09-03T19:04:12.160Z,1.25
2022-09-03T19:07:07.424Z,1.75
2022-09-03T19:10:02.239Z,1.30
2022-09-03T19:13:06.722Z,1.50
2022-09-03T19:16:13.494Z,1.60
2022-09-03T19:19:18.521Z,1.20
2022-09-03T19:22:10.413Z,1.23
2022-09-03T19:24:56.481Z,1.35
2022-09-03T19:28:00.140Z,1.48
2022-09-03T19:30:59.197Z,2.03
2022-09-03T19:33:56.469Z,1.27
2022-09-03T19:37:17.505Z,1.30
2022-09-03T19:40:11.953Z,1.33
2022-09-03T19:43:03.667Z,1.30
2022-09-03T19:45:56.382Z,1.30
2022-09-03T19:48:55.000Z,1.70
2022-09-03T19:51:43.285Z,1.70
2022-09-03T19:54:29.294Z,1.55
2022-09-03T19:57:16.840Z,1.88
2022-09-03T20:00:04.886Z,1.58
2022-09-03T20:02:50.890Z,1.30
2022-09-03T20:05:39.271Z,1.55
2022-09-03T20:08:25.877Z,0.98
2022-09-03T20:10:56.535Z,1.40
2022-09-03T20:13:23.858Z,1.25
2022-09-03T20:16:06.643Z,1.50
2022-09-03T20:18:45.945Z,1.45
2022-09-03T20:21:31.781Z,1.23
2022-09-03T20:24:19.619Z,1.58
2022-09-03T20:26:46.882Z,1.30
2022-09-03T20:29:32.576Z,1.60
2022-09-03T20:32:17.062Z,1.35
2022-09-03T20:34:44.236Z,1.35
2022-09-03T20:37:31.772Z,1.70
2022-09-03T20:39:59.110Z,1.30
2022-09-03T20:42:41.859Z,1.90
2022-09-03T20:45:24.427Z,1.48
2022-09-03T20:48:01.214Z,1.38
2022-09-03T20:50:32.592Z,1.33
2022-09-03T20:53:06.658Z,1.40
2022-09-03T20:55:37.392Z,1.50
2022-09-03T20:58:10.412Z,1.90
2022-09-03T21:00:53.706Z,1.50
2022-09-03T21:03:30.057Z,1.60
2022-09-03T21:06:14.766Z,2.25
2022-09-03T21:08:47.963Z,1.70
2022-09-03T21:11:19.085Z,1.98
2022-09-03T21:13:51.312Z,1.98
2022-09-03T21:16:36.942Z,1.60
2022-09-03T21:19:07.213Z,2.17
2022-09-03T21:21:36.407Z,2.13
2022-09-03T21:24:12.448Z,1.50
2022-09-03T21:26:46.117Z,1.85
2022-09-03T21:29:35.078Z,1.52
2022-09-03T21:32:38.029Z,2.20
2022-09-03T21:35:19.332Z,1.77
2022-09-03T21:37:51.252Z,1.95
2022-09-03T21:40:24.469Z,1.75
2022-09-03T21:42:59.702Z,1.98
2022-09-03T21:45:35.892Z,5.63
2022-09-03T21:48:22.100Z,4.43
2022-09-03T21:50:51.670Z,2.13
2022-09-03T21:53:23.809Z,2.13
2022-09-03T21:56:05.689Z,2.08
2022-09-03T21:58:35.688Z,1.80
2022-09-03T22:01:07.511Z,2.05
2022-09-03T22:03:35.103Z,1.90
2022-09-03T22:06:05.447Z,2.10
2022-09-03T22:08:38.081Z,1.75
2022-09-03T22:11:11.237Z,2.00
2022-09-03T22:13:44.282Z,1.70
2022-09-03T22:16:13.478Z,2.25
2022-09-03T22:18:41.404Z,1.98
2022-09-03T22:21:27.186Z,1.80
2022-09-03T22:24:09.740Z,1.90
2022-09-03T22:26:45.145Z,1.85
2022-09-03T22:29:15.448Z,1.98
2022-09-03T22:32:02.903Z,1.85
2022-09-03T22:34:40.438Z,2.25
2022-09-03T22:37:14.533Z,1.85
2022-09-03T22:39:46.186Z,2.05
2022-09-03T22:42:13.473Z,1.98
2022-09-03T22:44:48.072Z,1.52
2022-09-03T22:47:21.849Z,1.57
2022-09-03T22:49:54.868Z,2.03
2022-09-03T22:52:25.024Z,1.60
2022-09-03T22:54:52.161Z,1.88
2022-09-03T22:57:20.988Z,1.83
2022-09-03T22:59:57.627Z,2.08
2022-09-03T23:02:27.516Z,1.90
2022-09-03T23:05:06.271Z,1.80
2022-09-03T23:07:36.400Z,1.52
2022-09-03T23:10:06.645Z,2.00
2022-09-03T23:12:44.487Z,1.90
2022-09-03T23:15:23.134Z,2.00
2022-09-03T23:18:10.703Z,1.73
2022-09-03T23:20:41.793Z,1.80
2022-09-03T23:23:20.120Z,1.60
2022-09-03T23:25:53.810Z,1.88
2022-09-03T23:28:29.953Z,1.50
2022-09-03T23:31:04.164Z,1.75
2022-09-03T23:33:31.351Z,2.03
2022-09-03T23:36:05.670Z,1.70
2022-09-03T23:38:49.503Z,1.83
2022-09-03T23:41:24.022Z,2.10
2022-09-03T23:44:04.714Z,1.65
2022-09-03T23:46:50.481Z,1.50
2022-09-03T23:49:42.814Z,1.92
2022-09-03T23:52:09.957Z,2.17
2022-09-03T23:54:46.068Z,1.77
2022-09-03T23:57:18.997Z,1.80
